Time;durP1;ratioP1;P1;durP2;ratioP2;P2;SDS_P1;SDS_P2;PMS_P1;PMS_P2;Temp;Humidity;BMP_temperature;BMP_pressure;BME280_temperature;BME280_humidity;BME280_pressure;Samples;Min_cycle;Max_cycle;Signal;HPM_P1;HPM_P2
2022/04/17 00:00:15;;;;;;;;;;;4.70;97.90;;;;;;5064541;28;19932;-75
2022/04/17 00:02:42;;;;;;;;;;;4.50;97.90;;;;;;5098045;28;19940;-75
2022/04/17 00:05:09;;;;;;;;;;;4.50;97.90;;;;;;5067813;28;19924;-75
2022/04/17 00:07:36;;;;;;;;;;;4.50;98.00;;;;;;5062003;28;19961;-75
2022/04/17 00:10:03;;;;;;;;;;;4.40;98.00;;;;;;5067668;28;20341;-75
2022/04/17 00:12:30;;;;;;;;;;;4.50;98.10;;;;;;5069754;28;20456;-75
2022/04/17 00:14:57;;;;;;;;;;;4.40;98.10;;;;;;5061109;28;20018;-75
2022/04/17 00:17:24;;;;;;;;;;;4.40;98.30;;;;;;5065661;28;19935;-75
2022/04/17 00:19:51;;;;;;;;;;;4.40;98.20;;;;;;5067501;28;20119;-75
2022/04/17 00:22:17;;;;;;;;;;;4.30;98.20;;;;;;5059763;28;19970;-75
2022/04/17 00:24:44;;;;;;;;;;;4.20;98.40;;;;;;5064362;28;19925;-75
2022/04/17 00:27:11;;;;;;;;;;;4.10;98.60;;;;;;5063605;28;19962;-75
2022/04/17 00:29:37;;;;;;;;;;;4.10;98.70;;;;;;5066449;28;19928;-75
2022/04/17 00:32:05;;;;;;;;;;;4.00;98.80;;;;;;5067737;28;19959;-75
2022/04/17 00:34:31;;;;;;;;;;;3.90;98.90;;;;;;5063451;28;20031;-75
2022/04/17 00:36:59;;;;;;;;;;;3.80;99.10;;;;;;5066787;28;20466;-75
2022/04/17 00:39:26;;;;;;;;;;;3.70;99.20;;;;;;5100459;28;19970;-76
2022/04/17 00:41:54;;;;;;;;;;;3.70;99.50;;;;;;5067364;28;20572;-76
2022/04/17 00:44:20;;;;;;;;;;;3.70;99.50;;;;;;5064940;28;20027;-76
2022/04/17 00:46:47;;;;;;;;;;;3.50;99.60;;;;;;5067280;28;19931;-75
2022/04/17 00:49:14;;;;;;;;;;;3.30;99.90;;;;;;5062910;28;19924;-76
2022/04/17 00:51:41;;;;;;;;;;;3.20;99.90;;;;;;5063694;28;19935;-76
2022/04/17 00:54:09;;;;;;;;;;;3.10;99.90;;;;;;5065801;28;20019;-76
2022/04/17 00:56:35;;;;;;;;;;;3.00;99.90;;;;;;5067954;28;19931;-76
2022/04/17 00:59:04;;;;;;;;;;;2.90;99.90;;;;;;5068165;28;19928;-76
2022/04/17 01:01:33;;;;;;;;;;;3.00;99.90;;;;;;5068072;28;19929;-76
2022/04/17 01:04:01;;;;;;;;;;;3.00;99.90;;;;;;5094548;28;20280;-76
2022/04/17 01:06:28;;;;;;;;;;;3.10;99.90;;;;;;5065842;28;20371;-76
2022/04/17 01:08:55;;;;;;;;;;;3.00;99.90;;;;;;5068255;28;20019;-76
2022/04/17 01:11:21;;;;;;;;;;;3.10;99.90;;;;;;5068479;28;20334;-75
2022/04/17 01:13:48;;;;;;;;;;;3.00;99.90;;;;;;5065429;28;20011;-76
2022/04/17 01:16:16;;;;;;;;;;;3.00;99.90;;;;;;5065439;28;19930;-76
2022/04/17 01:18:57;;;;;;;;;;;3.00;99.90;;;;;;5066627;28;19924;-76
2022/04/17 01:21:27;;;;;;;;;;;2.90;99.90;;;;;;5063998;28;20027;-76
2022/04/17 01:26:56;;;;;;;;;;;2.90;99.90;;;;;;5064142;28;19932;-76
2022/04/17 01:29:23;;;;;;;;;;;2.90;99.90;;;;;;5066724;28;20360;-76
2022/04/17 01:31:50;;;;;;;;;;;2.80;99.90;;;;;;5068613;28;19932;-76
2022/04/17 01:34:17;;;;;;;;;;;2.70;99.90;;;;;;5065002;28;20154;-76
2022/04/17 01:36:44;;;;;;;;;;;2.60;99.90;;;;;;5064398;28;19925;-76
2022/04/17 01:39:13;;;;;;;;;;;2.50;99.90;;;;;;5062985;28;20367;-76
2022/04/17 01:41:41;;;;;;;;;;;2.50;99.90;;;;;;5060453;28;19939;-76
2022/04/17 01:44:07;;;;;;;;;;;2.40;99.90;;;;;;5065041;28;20385;-76
2022/04/17 01:46:34;;;;;;;;;;;2.30;99.90;;;;;;5066525;28;19931;-75
2022/04/17 01:49:01;;;;;;;;;;;2.20;99.90;;;;;;5066047;28;19928;-76
2022/04/17 01:51:28;;;;;;;;;;;2.10;99.90;;;;;;5065091;28;19935;-75
2022/04/17 01:53:58;;;;;;;;;;;2.10;99.90;;;;;;5068665;28;19924;-76
2022/04/17 01:56:24;;;;;;;;;;;2.00;99.90;;;;;;5065798;28;20015;-76
2022/04/17 01:58:51;;;;;;;;;;;2.00;99.90;;;;;;5067987;28;19930;-76
2022/04/17 02:01:17;;;;;;;;;;;2.00;99.90;;;;;;5067469;28;19931;-75
2022/04/17 02:03:44;;;;;;;;;;;1.90;99.90;;;;;;5065613;28;20375;-75
2022/04/17 02:06:11;;;;;;;;;;;1.80;99.90;;;;;;5062165;28;19925;-76
2022/04/17 02:08:37;;;;;;;;;;;1.80;99.90;;;;;;5068407;28;19931;-76
2022/04/17 02:11:04;;;;;;;;;;;1.90;99.90;;;;;;5098528;28;20011;-76
2022/04/17 02:13:31;;;;;;;;;;;1.80;99.90;;;;;;5067616;28;19932;-76
2022/04/17 02:15:58;;;;;;;;;;;1.90;99.90;;;;;;5064057;28;20165;-76
2022/04/17 02:18:25;;;;;;;;;;;2.00;99.90;;;;;;5063927;28;19986;-76
2022/04/17 02:20:56;;;;;;;;;;;2.10;99.90;;;;;;5062123;28;20025;-76
2022/04/17 02:23:23;;;;;;;;;;;2.10;99.90;;;;;;5062631;28;19931;-76
2022/04/17 02:25:49;;;;;;;;;;;2.00;99.90;;;;;;5064190;28;19924;-76
2022/04/17 02:28:16;;;;;;;;;;;1.90;99.90;;;;;;5062320;28;19933;-76
2022/04/17 02:30:43;;;;;;;;;;;1.80;99.90;;;;;;5065259;28;20015;-76
2022/04/17 02:33:10;;;;;;;;;;;1.90;99.90;;;;;;5062684;28;20398;-76
2022/04/17 02:35:37;;;;;;;;;;;1.90;99.90;;;;;;5065545;28;20413;-75
2022/04/17 02:38:04;;;;;;;;;;;1.90;99.90;;;;;;5065909;28;19924;-75
2022/04/17 02:40:31;;;;;;;;;;;1.90;99.90;;;;;;5067249;28;20439;-76
2022/04/17 02:42:59;;;;;;;;;;;1.90;99.90;;;;;;5067480;28;19931;-76
2022/04/17 02:45:27;;;;;;;;;;;1.90;99.90;;;;;;5096168;28;19939;-76
2022/04/17 02:47:53;;;;;;;;;;;1.90;99.90;;;;;;5055163;28;19940;-76
2022/04/17 02:50:20;;;;;;;;;;;2.00;99.90;;;;;;5062836;28;19940;-76
2022/04/17 02:52:47;;;;;;;;;;;2.00;99.90;;;;;;5059945;28;19924;-76
2022/04/17 02:55:13;;;;;;;;;;;2.00;99.90;;;;;;5062271;28;19960;-76
2022/04/17 02:57:40;;;;;;;;;;;2.00;99.90;;;;;;5065439;28;19932;-76
2022/04/17 03:00:08;;;;;;;;;;;2.00;99.90;;;;;;5066434;28;19924;-75
2022/04/17 03:05:36;;;;;;;;;;;1.90;99.90;;;;;;5069366;28;20294;-75
2022/04/17 03:08:13;;;;;;;;;;;1.80;99.90;;;;;;5064929;28;19924;-75
2022/04/17 03:10:43;;;;;;;;;;;1.80;99.90;;;;;;5063811;28;19929;-75
2022/04/17 03:13:10;;;;;;;;;;;1.60;99.90;;;;;;5071448;28;20260;-75
2022/04/17 03:15:38;;;;;;;;;;;1.50;99.90;;;;;;5068410;28;19932;-75
2022/04/17 03:18:05;;;;;;;;;;;1.50;99.90;;;;;;5069540;28;20154;-75
2022/04/17 03:20:32;;;;;;;;;;;1.50;99.90;;;;;;5067060;28;19925;-75
2022/04/17 03:22:58;;;;;;;;;;;1.50;99.90;;;;;;5070399;28;19925;-75
2022/04/17 03:25:25;;;;;;;;;;;1.50;99.90;;;;;;5068896;28;20282;-75
2022/04/17 03:27:53;;;;;;;;;;;1.30;99.90;;;;;;5062830;28;19939;-75
2022/04/17 03:30:23;;;;;;;;;;;1.30;99.90;;;;;;5067770;28;19944;-75
2022/04/17 03:32:50;;;;;;;;;;;1.10;99.90;;;;;;5068815;28;20011;-76
2022/04/17 03:35:20;;;;;;;;;;;1.10;99.90;;;;;;5066755;28;20450;-75
2022/04/17 03:37:47;;;;;;;;;;;1.00;99.90;;;;;;5065850;28;19929;-75
2022/04/17 03:40:15;;;;;;;;;;;0.90;99.90;;;;;;5069838;28;19932;-75
2022/04/17 03:42:42;;;;;;;;;;;0.80;99.90;;;;;;5063174;28;20011;-75
2022/04/17 03:45:11;;;;;;;;;;;0.80;99.90;;;;;;5069727;28;19932;-75
2022/04/17 03:47:38;;;;;;;;;;;0.80;99.90;;;;;;5067776;28;19935;-75
2022/04/17 03:50:05;;;;;;;;;;;0.80;99.90;;;;;;5068047;28;19924;-75
2022/04/17 03:52:38;;;;;;;;;;;0.90;99.90;;;;;;5068033;28;20328;-75
2022/04/17 03:55:05;;;;;;;;;;;0.90;99.90;;;;;;5069333;28;19980;-75
2022/04/17 03:57:32;;;;;;;;;;;0.90;99.90;;;;;;5061352;28;19932;-75
2022/04/17 03:59:58;;;;;;;;;;;0.90;99.90;;;;;;5067661;28;19935;-75
2022/04/17 04:02:26;;;;;;;;;;;0.90;99.90;;;;;;5067454;28;19925;-75
2022/04/17 04:04:53;;;;;;;;;;;0.90;99.90;;;;;;5061396;28;20344;-75
2022/04/17 04:07:20;;;;;;;;;;;0.90;99.90;;;;;;5064893;28;19936;-75
2022/04/17 04:09:46;;;;;;;;;;;0.80;99.90;;;;;;5066392;28;20022;-75
2022/04/17 04:12:13;;;;;;;;;;;0.80;99.90;;;;;;5069237;28;20399;-75
2022/04/17 04:14:40;;;;;;;;;;;0.90;99.90;;;;;;5065026;28;19947;-75
2022/04/17 04:17:06;;;;;;;;;;;1.10;99.90;;;;;;5065838;28;19924;-75
2022/04/17 04:19:33;;;;;;;;;;;1.10;99.90;;;;;;5067377;28;19934;-75
2022/04/17 04:22:00;;;;;;;;;;;1.20;99.90;;;;;;5100483;28;20296;-75
2022/04/17 04:24:27;;;;;;;;;;;1.20;99.90;;;;;;5065926;28;20298;-75
2022/04/17 04:29:42;;;;;;;;;;;1.10;99.90;;;;;;5063771;28;19928;-75
2022/04/17 04:32:09;;;;;;;;;;;1.10;99.90;;;;;;5066413;28;19925;-75
2022/04/17 04:34:35;;;;;;;;;;;1.00;99.90;;;;;;5065812;28;20011;-75
2022/04/17 04:37:02;;;;;;;;;;;1.00;99.90;;;;;;5065027;28;19931;-75
2022/04/17 04:39:29;;;;;;;;;;;1.00;99.90;;;;;;5065231;28;19924;-75
2022/04/17 04:41:55;;;;;;;;;;;1.00;99.90;;;;;;5066123;28;19940;-75
2022/04/17 04:44:22;;;;;;;;;;;1.10;99.90;;;;;;5065984;28;19924;-75
2022/04/17 04:46:51;;;;;;;;;;;1.20;99.90;;;;;;5060084;28;19925;-75
2022/04/17 04:49:30;;;;;;;;;;;1.20;99.90;;;;;;5065156;28;20210;-75
2022/04/17 04:52:03;;;;;;;;;;;1.20;99.90;;;;;;5068392;28;19974;-75
2022/04/17 04:54:32;;;;;;;;;;;1.10;99.90;;;;;;5065184;28;19933;-75
2022/04/17 04:57:00;;;;;;;;;;;1.20;99.90;;;;;;5063035;28;20265;-76
2022/04/17 04:59:27;;;;;;;;;;;1.20;99.90;;;;;;5065698;28;20167;-75
2022/04/17 05:01:53;;;;;;;;;;;1.30;99.90;;;;;;5068518;28;19966;-76
2022/04/17 05:04:20;;;;;;;;;;;1.40;99.90;;;;;;5059831;28;19933;-76
2022/04/17 05:06:47;;;;;;;;;;;1.50;99.90;;;;;;5067917;28;19928;-76
2022/04/17 05:09:14;;;;;;;;;;;1.60;99.90;;;;;;5067940;28;19925;-76
2022/04/17 05:11:41;;;;;;;;;;;1.60;99.90;;;;;;5063170;28;20027;-76
2022/04/17 05:14:09;;;;;;;;;;;1.70;99.90;;;;;;5067787;28;19932;-76
2022/04/17 05:16:36;;;;;;;;;;;1.80;99.90;;;;;;5066338;28;19929;-76
2022/04/17 05:19:24;;;;;;;;;;;1.90;99.90;;;;;;5065955;28;19928;-76
2022/04/17 05:21:57;;;;;;;;;;;1.90;99.90;;;;;;5070153;28;20138;-76
2022/04/17 05:24:24;;;;;;;;;;;2.00;99.90;;;;;;5066043;28;19925;-76
2022/04/17 05:26:52;;;;;;;;;;;2.00;99.90;;;;;;5068235;28;19928;-76
2022/04/17 05:29:19;;;;;;;;;;;2.20;99.90;;;;;;5066623;28;19931;-76
2022/04/17 05:31:46;;;;;;;;;;;2.30;99.90;;;;;;5061837;28;20366;-76
2022/04/17 05:34:13;;;;;;;;;;;2.40;99.90;;;;;;5061863;28;19931;-76
2022/04/17 05:36:40;;;;;;;;;;;2.60;99.90;;;;;;5104331;28;19928;-76
2022/04/17 05:39:06;;;;;;;;;;;2.70;99.90;;;;;;5095646;28;19928;-76
2022/04/17 05:41:33;;;;;;;;;;;2.80;99.90;;;;;;5065227;28;19925;-76
2022/04/17 05:44:00;;;;;;;;;;;3.00;99.90;;;;;;5068626;28;19925;-77
2022/04/17 05:46:30;;;;;;;;;;;3.10;99.90;;;;;;5069306;28;19940;-76
2022/04/17 05:48:58;;;;;;;;;;;3.20;99.90;;;;;;5063690;28;19970;-76
2022/04/17 05:51:24;;;;;;;;;;;3.40;99.90;;;;;;5061038;28;20290;-76
2022/04/17 05:53:52;;;;;;;;;;;3.50;99.90;;;;;;5065243;28;19928;-77
2022/04/17 05:56:19;;;;;;;;;;;3.70;99.90;;;;;;5100123;28;20399;-76
2022/04/17 05:58:45;;;;;;;;;;;3.80;99.90;;;;;;5067186;28;20398;-76
2022/04/17 06:01:14;;;;;;;;;;;4.00;99.90;;;;;;5066235;28;19930;-76
2022/04/17 06:03:41;;;;;;;;;;;4.20;99.90;;;;;;5066143;28;19928;-76
2022/04/17 06:06:08;;;;;;;;;;;4.60;99.90;;;;;;5067853;28;19924;-74
2022/04/17 06:08:35;;;;;;;;;;;6.20;99.90;;;;;;5063949;28;19930;-74
2022/04/17 06:11:01;;;;;;;;;;;8.20;99.90;;;;;;5060503;28;20416;-75
2022/04/17 06:13:28;;;;;;;;;;;10.10;99.90;;;;;;5064817;28;19924;-75
2022/04/17 06:15:55;;;;;;;;;;;11.40;99.90;;;;;;5067779;28;19928;-75
2022/04/17 06:18:22;;;;;;;;;;;12.40;99.90;;;;;;5065200;28;20348;-75
2022/04/17 06:20:48;;;;;;;;;;;12.50;98.40;;;;;;5059865;28;19924;-75
2022/04/17 06:23:15;;;;;;;;;;;12.70;98.10;;;;;;5058911;28;19946;-75
2022/04/17 06:25:41;;;;;;;;;;;13.20;97.40;;;;;;5064851;28;19944;-75
2022/04/17 06:28:08;;;;;;;;;;;13.70;96.20;;;;;;5062851;28;19928;-75
2022/04/17 06:30:35;;;;;;;;;;;14.20;96.00;;;;;;5064647;28;19929;-75
2022/04/17 06:33:02;;;;;;;;;;;14.40;95.40;;;;;;5045038;28;19939;-75
2022/04/17 06:35:29;;;;;;;;;;;14.50;95.40;;;;;;5055838;28;19924;-74
2022/04/17 06:38:00;;;;;;;;;;;15.10;95.60;;;;;;5067784;28;19924;-74
2022/04/17 06:40:31;;;;;;;;;;;15.90;94.20;;;;;;5065715;28;20130;-75
2022/04/17 06:43:05;;;;;;;;;;;16.00;93.50;;;;;;5066234;28;20387;-75
2022/04/17 06:45:38;;;;;;;;;;;15.90;92.80;;;;;;5080421;28;19924;-75
2022/04/17 06:48:18;;;;;;;;;;;15.90;92.50;;;;;;5067800;28;19943;-75
2022/04/17 06:50:45;;;;;;;;;;;15.90;92.70;;;;;;5063895;28;19933;-75
2022/04/17 06:53:14;;;;;;;;;;;15.80;93.10;;;;;;5064615;28;20283;-75
2022/04/17 06:55:41;;;;;;;;;;;15.70;92.40;;;;;;5063673;28;19934;-75
2022/04/17 06:58:08;;;;;;;;;;;15.80;92.70;;;;;;5069109;28;20391;-75
2022/04/17 07:00:35;;;;;;;;;;;16.00;92.10;;;;;;5063556;28;19935;-74
2022/04/17 07:03:02;;;;;;;;;;;15.20;91.70;;;;;;5065621;28;19933;-75
2022/04/17 07:05:29;;;;;;;;;;;14.90;92.10;;;;;;5061060;28;19930;-74
2022/04/17 07:07:58;;;;;;;;;;;14.50;92.50;;;;;;5080272;28;19940;-74
2022/04/17 07:10:25;;;;;;;;;;;14.30;92.50;;;;;;5060097;28;19925;-74
2022/04/17 07:12:51;;;;;;;;;;;14.40;93.00;;;;;;5064836;28;20283;-74
2022/04/17 07:15:19;;;;;;;;;;;14.90;92.90;;;;;;5063822;28;20553;-74
2022/04/17 07:17:46;;;;;;;;;;;14.80;91.90;;;;;;5058638;28;19940;-74
2022/04/17 07:20:16;;;;;;;;;;;14.80;91.90;;;;;;5096322;27;19929;-74
2022/04/17 07:22:43;;;;;;;;;;;14.50;92.80;;;;;;5063191;28;19931;-74
2022/04/17 07:25:11;;;;;;;;;;;14.20;92.50;;;;;;5070540;28;20365;-75
2022/04/17 07:27:41;;;;;;;;;;;14.40;93.00;;;;;;5059858;28;20370;-75
2022/04/17 07:30:12;;;;;;;;;;;14.70;92.20;;;;;;5066196;28;20303;-74
2022/04/17 07:32:42;;;;;;;;;;;14.50;92.20;;;;;;5063423;28;19931;-75
2022/04/17 07:35:09;;;;;;;;;;;14.00;92.80;;;;;;5065649;28;19935;-74
2022/04/17 07:37:36;;;;;;;;;;;14.30;93.10;;;;;;5067375;28;20307;-74
2022/04/17 07:40:15;;;;;;;;;;;14.70;91.80;;;;;;5066653;28;19924;-74
2022/04/17 07:42:50;;;;;;;;;;;14.70;92.00;;;;;;5061040;28;19940;-75
2022/04/17 07:45:18;;;;;;;;;;;14.80;92.20;;;;;;5063238;28;20349;-75
2022/04/17 07:47:45;;;;;;;;;;;15.00;91.70;;;;;;5092286;28;19939;-74
2022/04/17 07:50:16;;;;;;;;;;;15.30;92.30;;;;;;5057551;28;19932;-75
2022/04/17 07:52:43;;;;;;;;;;;15.00;91.70;;;;;;5059973;28;20334;-74
2022/04/17 07:55:11;;;;;;;;;;;14.60;91.30;;;;;;5064953;28;19930;-74
2022/04/17 08:00:47;;;;;;;;;;;13.60;92.20;;;;;;5043591;28;19928;-75
2022/04/17 08:04:15;;;;;;;;;;;14.10;92.30;;;;;;5064595;28;19973;-75
2022/04/17 08:06:12;;;;;;;;;;;14.70;91.20;;;;;;5055724;28;19924;-75
2022/04/17 08:08:39;;;;;;;;;;;14.70;91.10;;;;;;5058660;28;19959;-75
2022/04/17 08:11:07;;;;;;;;;;;14.80;91.60;;;;;;5063577;28;20027;-75
2022/04/17 08:13:34;;;;;;;;;;;14.70;91.20;;;;;;5065612;28;19928;-74
2022/04/17 08:16:02;;;;;;;;;;;14.60;91.00;;;;;;5064572;28;19970;-75
2022/04/17 08:18:29;;;;;;;;;;;14.80;90.60;;;;;;5065196;28;20760;-76
2022/04/17 08:20:58;;;;;;;;;;;15.00;91.00;;;;;;5065510;28;20329;-76
2022/04/17 08:23:24;;;;;;;;;;;15.40;90.60;;;;;;5063639;28;19932;-74
2022/04/17 08:25:51;;;;;;;;;;;15.00;90.30;;;;;;5098943;28;20140;-74
2022/04/17 08:28:17;;;;;;;;;;;14.60;90.40;;;;;;5065448;28;19924;-74
2022/04/17 08:30:45;;;;;;;;;;;14.60;90.70;;;;;;5064153;28;20116;-74
2022/04/17 08:33:12;;;;;;;;;;;14.00;91.20;;;;;;5056837;28;19928;-74
2022/04/17 08:35:39;;;;;;;;;;;14.30;92.80;;;;;;5064368;28;20342;-74
2022/04/17 08:38:05;;;;;;;;;;;14.40;91.70;;;;;;5063806;28;20368;-74
2022/04/17 08:40:32;;;;;;;;;;;14.30;90.90;;;;;;5065361;28;19963;-75
2022/04/17 08:42:59;;;;;;;;;;;14.20;91.10;;;;;;5067228;28;20303;-75
2022/04/17 08:45:26;;;;;;;;;;;14.70;91.60;;;;;;5067279;28;20383;-76
2022/04/17 08:47:56;;;;;;;;;;;14.60;90.40;;;;;;5066388;28;19936;-76
2022/04/17 08:50:23;;;;;;;;;;;14.20;91.60;;;;;;5063161;28;20012;-77
2022/04/17 08:52:50;;;;;;;;;;;14.20;90.90;;;;;;5066289;28;19952;-77
2022/04/17 08:55:17;;;;;;;;;;;14.30;91.80;;;;;;5061880;28;19937;-77
2022/04/17 08:57:44;;;;;;;;;;;14.30;91.60;;;;;;5069384;28;19963;-76
2022/04/17 09:00:13;;;;;;;;;;;14.30;90.70;;;;;;5059267;28;20224;-76
2022/04/17 09:02:40;;;;;;;;;;;14.40;90.90;;;;;;5060323;28;19971;-77
2022/04/17 09:05:09;;;;;;;;;;;14.40;90.70;;;;;;5064921;28;20375;-77
2022/04/17 09:07:39;;;;;;;;;;;13.70;90.80;;;;;;5065977;28;19924;-77
2022/04/17 09:10:07;;;;;;;;;;;13.60;91.20;;;;;;5064854;28;19924;-77
2022/04/17 09:12:33;;;;;;;;;;;14.00;91.10;;;;;;5098558;28;19925;-78
2022/04/17 09:15:00;;;;;;;;;;;14.20;90.80;;;;;;5063887;28;19939;-77
2022/04/17 09:17:33;;;;;;;;;;;13.90;90.70;;;;;;5063125;28;19924;-77
2022/04/17 09:20:03;;;;;;;;;;;14.30;90.90;;;;;;5063549;28;19960;-78
2022/04/17 09:22:46;;;;;;;;;;;14.70;91.50;;;;;;5064929;28;20344;-77
2022/04/17 09:25:13;;;;;;;;;;;15.00;90.80;;;;;;5067691;28;19924;-77
2022/04/17 09:28:00;;;;;;;;;;;15.10;89.90;;;;;;5065914;28;20054;-75
2022/04/17 09:30:28;;;;;;;;;;;15.30;90.20;;;;;;5062187;28;20022;-77
2022/04/17 09:32:56;;;;;;;;;;;15.00;90.10;;;;;;5053300;28;19928;-77
2022/04/17 09:35:26;;;;;;;;;;;15.30;89.90;;;;;;5058667;28;20434;-77
2022/04/17 09:37:59;;;;;;;;;;;15.60;90.80;;;;;;5062316;28;19928;-77
2022/04/17 09:40:27;;;;;;;;;;;15.80;90.20;;;;;;5062422;28;19924;-77
2022/04/17 09:43:14;;;;;;;;;;;16.20;88.90;;;;;;5092638;28;19924;-77
2022/04/17 09:46:00;;;;;;;;;;;16.40;88.10;;;;;;5064039;28;20107;-77
2022/04/17 09:48:35;;;;;;;;;;;16.20;89.50;;;;;;5101051;28;20228;-78
2022/04/17 09:51:19;;;;;;;;;;;15.90;89.10;;;;;;5060947;28;20263;-77
2022/04/17 09:53:55;;;;;;;;;;;15.90;87.90;;;;;;5068714;28;19912;-77
2022/04/17 09:56:29;;;;;;;;;;;15.90;89.50;;;;;;5056542;28;19935;-77
2022/04/17 09:58:56;;;;;;;;;;;15.70;87.80;;;;;;5059968;28;19932;-77
2022/04/17 10:01:24;;;;;;;;;;;15.40;88.10;;;;;;5057463;28;20295;-77
2022/04/17 10:03:50;;;;;;;;;;;16.10;89.40;;;;;;5061357;28;19932;-77
2022/04/17 10:06:21;;;;;;;;;;;16.40;88.10;;;;;;5063481;28;20350;-77
2022/04/17 10:08:50;;;;;;;;;;;16.60;86.40;;;;;;5058570;28;19931;-77
2022/04/17 10:11:17;;;;;;;;;;;16.70;86.70;;;;;;5064810;28;20509;-77
2022/04/17 10:13:45;;;;;;;;;;;16.50;86.80;;;;;;5060317;28;19928;-77
2022/04/17 10:16:20;;;;;;;;;;;16.00;86.50;;;;;;5063298;28;19946;-77
2022/04/17 10:18:47;;;;;;;;;;;15.90;87.70;;;;;;5058797;28;19934;-77
2022/04/17 10:21:15;;;;;;;;;;;16.10;88.40;;;;;;5058195;28;19932;-78
2022/04/17 10:23:45;;;;;;;;;;;16.30;85.60;;;;;;5054968;28;19928;-77
2022/04/17 10:26:14;;;;;;;;;;;16.20;86.70;;;;;;5056624;28;19932;-77
2022/04/17 10:28:44;;;;;;;;;;;16.20;86.00;;;;;;5063328;28;19925;-77
2022/04/17 10:31:17;;;;;;;;;;;16.70;86.90;;;;;;5067959;28;19962;-77
2022/04/17 10:33:44;;;;;;;;;;;17.40;89.00;;;;;;5060789;28;20010;-77
2022/04/17 10:36:10;;;;;;;;;;;17.50;85.70;;;;;;5062531;28;19952;-77
2022/04/17 10:38:49;;;;;;;;;;;18.10;84.90;;;;;;5067887;28;19924;-77
2022/04/17 10:41:16;;;;;;;;;;;18.40;84.90;;;;;;5059145;28;20290;-78
2022/04/17 10:43:42;;;;;;;;;;;19.10;84.90;;;;;;5062070;28;19928;-76
2022/04/17 10:46:11;;;;;;;;;;;19.50;83.40;;;;;;5058068;28;20417;-77
2022/04/17 10:48:41;;;;;;;;;;;19.80;84.20;;;;;;5058459;28;19932;-77
2022/04/17 10:51:13;;;;;;;;;;;20.60;84.10;;;;;;5068192;28;19928;-76
2022/04/17 10:53:49;;;;;;;;;;;20.90;83.80;;;;;;5063674;28;20374;-76
2022/04/17 10:56:16;;;;;;;;;;;20.70;82.50;;;;;;5060999;28;19924;-76
2022/04/17 10:58:56;;;;;;;;;;;20.10;82.10;;;;;;5065501;28;20302;-76
2022/04/17 11:01:41;;;;;;;;;;;19.90;82.20;;;;;;5069930;28;19933;-77
2022/04/17 11:04:15;;;;;;;;;;;19.70;81.70;;;;;;5069564;28;19939;-76
2022/04/17 11:06:42;;;;;;;;;;;19.10;81.90;;;;;;5062884;28;19929;-77
2022/04/17 11:09:13;;;;;;;;;;;19.00;81.60;;;;;;5065548;28;19924;-76
2022/04/17 11:11:41;;;;;;;;;;;19.00;81.70;;;;;;5055104;28;19928;-77
2022/04/17 11:14:10;;;;;;;;;;;19.20;81.30;;;;;;5062103;28;19925;-77
2022/04/17 11:16:49;;;;;;;;;;;18.70;80.60;;;;;;5063928;28;19924;-76
2022/04/17 11:19:17;;;;;;;;;;;18.10;81.90;;;;;;5074150;28;20208;-77
2022/04/17 11:21:45;;;;;;;;;;;18.60;82.60;;;;;;5064531;28;19929;-76
2022/04/17 11:24:11;;;;;;;;;;;18.60;81.80;;;;;;5064090;28;20555;-76
2022/04/17 11:26:53;;;;;;;;;;;18.50;81.70;;;;;;5069060;28;20148;-76
2022/04/17 11:29:33;;;;;;;;;;;18.80;81.50;;;;;;5067764;28;19932;-76
2022/04/17 11:32:01;;;;;;;;;;;19.10;83.10;;;;;;5066108;28;19924;-76
2022/04/17 11:34:43;;;;;;;;;;;19.70;80.00;;;;;;5062201;28;19928;-77
2022/04/17 11:37:10;;;;;;;;;;;20.40;79.70;;;;;;5057807;28;19938;-77
2022/04/17 11:39:38;;;;;;;;;;;20.50;79.30;;;;;;5066471;28;19925;-77
2022/04/17 11:42:06;;;;;;;;;;;20.30;79.50;;;;;;5062969;28;19999;-76
2022/04/17 11:44:33;;;;;;;;;;;19.90;80.50;;;;;;5066843;28;19928;-76
2022/04/17 11:47:00;;;;;;;;;;;19.70;81.60;;;;;;5060412;28;19929;-76
2022/04/17 11:49:32;;;;;;;;;;;19.00;79.40;;;;;;5062885;28;19925;-76
2022/04/17 11:52:15;;;;;;;;;;;19.10;81.30;;;;;;5065972;28;20418;-76
2022/04/17 11:54:42;;;;;;;;;;;19.20;80.70;;;;;;5060973;28;19925;-76
2022/04/17 11:57:10;;;;;;;;;;;19.30;81.30;;;;;;5065760;28;20387;-76
2022/04/17 11:59:47;;;;;;;;;;;19.40;80.90;;;;;;5079453;28;19925;-76
2022/04/17 12:02:18;;;;;;;;;;;19.50;81.10;;;;;;5062939;28;19931;-76
2022/04/17 12:04:48;;;;;;;;;;;19.90;82.50;;;;;;5065095;28;19931;-76
2022/04/17 12:07:22;;;;;;;;;;;19.70;80.10;;;;;;5064213;28;19968;-77
2022/04/17 12:09:48;;;;;;;;;;;19.80;80.10;;;;;;5060176;28;20263;-76
2022/04/17 12:12:16;;;;;;;;;;;19.90;79.80;;;;;;5065839;28;19931;-77
2022/04/17 12:14:52;;;;;;;;;;;20.30;79.70;;;;;;5068029;28;20185;-76
2022/04/17 12:17:20;;;;;;;;;;;19.90;80.80;;;;;;5062377;28;19932;-77
2022/04/17 12:19:50;;;;;;;;;;;20.00;79.90;;;;;;5068117;28;19928;-77
2022/04/17 12:22:18;;;;;;;;;;;20.10;81.80;;;;;;5066808;28;19929;-77
2022/04/17 12:24:48;;;;;;;;;;;20.10;79.20;;;;;;5064651;28;19946;-75
2022/04/17 12:27:20;;;;;;;;;;;19.90;80.00;;;;;;5067853;28;20355;-76
2022/04/17 12:29:52;;;;;;;;;;;20.00;80.00;;;;;;5066016;28;19925;-76
2022/04/17 12:32:26;;;;;;;;;;;20.30;81.30;;;;;;5068296;28;20456;-76
2022/04/17 12:34:56;;;;;;;;;;;20.30;77.00;;;;;;5063449;28;20253;-76
2022/04/17 12:37:28;;;;;;;;;;;19.90;76.60;;;;;;5059550;28;19946;-76
2022/04/17 12:40:14;;;;;;;;;;;19.70;75.70;;;;;;5063751;28;19938;-75
2022/04/17 12:42:40;;;;;;;;;;;19.50;79.40;;;;;;5065560;28;20006;-77
2022/04/17 12:45:08;;;;;;;;;;;19.60;76.50;;;;;;5058503;28;19947;-76
2022/04/17 12:47:36;;;;;;;;;;;19.30;77.70;;;;;;5071043;28;19932;-76
2022/04/17 12:50:03;;;;;;;;;;;19.10;76.60;;;;;;5055773;28;19970;-76
2022/04/17 12:52:33;;;;;;;;;;;19.60;78.10;;;;;;5065347;28;19936;-76
2022/04/17 12:55:07;;;;;;;;;;;19.90;78.80;;;;;;5061738;28;20123;-76
2022/04/17 12:57:33;;;;;;;;;;;19.90;75.50;;;;;;5063773;28;19924;-76
2022/04/17 13:00:00;;;;;;;;;;;19.80;76.00;;;;;;5065458;28;19934;-76
2022/04/17 13:02:27;;;;;;;;;;;20.00;77.50;;;;;;5062847;28;20366;-76
2022/04/17 13:04:56;;;;;;;;;;;19.70;75.60;;;;;;5064887;28;19928;-76
2022/04/17 13:07:33;;;;;;;;;;;19.80;76.10;;;;;;5060969;28;19928;-76
2022/04/17 13:10:03;;;;;;;;;;;20.20;75.70;;;;;;5061284;28;20015;-76
2022/04/17 13:12:31;;;;;;;;;;;20.20;74.30;;;;;;5057195;28;19951;-76
2022/04/17 13:14:58;;;;;;;;;;;19.60;73.50;;;;;;5056041;28;19947;-76
2022/04/17 13:17:27;;;;;;;;;;;19.30;73.60;;;;;;5061750;28;20369;-75
2022/04/17 13:19:53;;;;;;;;;;;19.50;74.50;;;;;;5053927;28;19925;-76
2022/04/17 13:22:20;;;;;;;;;;;19.40;75.50;;;;;;5061425;28;19928;-76
2022/04/17 13:24:47;;;;;;;;;;;19.60;73.30;;;;;;5060576;28;20408;-76
2022/04/17 13:27:14;;;;;;;;;;;20.00;74.40;;;;;;5065002;28;19928;-75
2022/04/17 13:29:44;;;;;;;;;;;19.90;73.60;;;;;;5065327;28;19928;-75
2022/04/17 13:32:16;;;;;;;;;;;20.10;73.20;;;;;;5097641;28;19929;-76
2022/04/17 13:34:43;;;;;;;;;;;20.50;72.70;;;;;;5061735;28;19925;-76
2022/04/17 13:39:58;;;;;;;;;;;21.00;73.10;;;;;;5057439;28;19925;-76
2022/04/17 13:42:25;;;;;;;;;;;21.20;71.60;;;;;;5058053;28;19932;-75
2022/04/17 13:44:52;;;;;;;;;;;21.10;70.60;;;;;;5056518;28;21451;-75
2022/04/17 13:47:18;;;;;;;;;;;21.10;71.20;;;;;;5057903;28;19932;-76
2022/04/17 13:49:45;;;;;;;;;;;21.10;71.60;;;;;;5062489;28;19928;-75
2022/04/17 13:52:12;;;;;;;;;;;21.30;71.70;;;;;;5063405;28;19928;-76
2022/04/17 13:54:38;;;;;;;;;;;21.80;70.80;;;;;;5063847;28;19925;-76
2022/04/17 13:57:05;;;;;;;;;;;21.90;70.00;;;;;;5061880;28;19928;-75
2022/04/17 13:59:32;;;;;;;;;;;21.80;69.20;;;;;;5065610;28;19934;-76
2022/04/17 14:01:59;;;;;;;;;;;21.80;69.70;;;;;;5096036;28;19928;-75
2022/04/17 14:04:25;;;;;;;;;;;21.80;69.60;;;;;;5062797;28;19932;-76
2022/04/17 14:06:52;;;;;;;;;;;22.40;70.10;;;;;;5059334;28;20147;-76
2022/04/17 14:09:19;;;;;;;;;;;22.90;69.80;;;;;;5063757;28;19928;-77
2022/04/17 14:11:45;;;;;;;;;;;23.20;69.50;;;;;;5053569;28;19932;-76
2022/04/17 14:14:12;;;;;;;;;;;23.30;67.90;;;;;;5054897;28;19933;-75
2022/04/17 14:16:40;;;;;;;;;;;23.10;67.10;;;;;;5060827;28;20282;-76
2022/04/17 14:19:08;;;;;;;;;;;23.60;68.20;;;;;;5057973;28;19936;-75
2022/04/17 14:21:35;;;;;;;;;;;24.00;68.50;;;;;;5056076;28;19935;-75
2022/04/17 14:24:02;;;;;;;;;;;23.20;68.60;;;;;;5052825;28;19956;-75
2022/04/17 14:26:28;;;;;;;;;;;23.00;68.20;;;;;;5062487;28;19978;-75
2022/04/17 14:28:55;;;;;;;;;;;22.20;68.20;;;;;;5058576;28;19943;-75
2022/04/17 14:31:25;;;;;;;;;;;21.90;68.20;;;;;;5061375;28;20027;-76
2022/04/17 14:33:53;;;;;;;;;;;21.50;67.90;;;;;;5059994;28;19932;-75
2022/04/17 14:36:23;;;;;;;;;;;22.30;68.60;;;;;;5060554;28;19937;-75
2022/04/17 14:38:50;;;;;;;;;;;22.70;69.10;;;;;;5060936;28;19975;-76
2022/04/17 14:41:17;;;;;;;;;;;23.30;67.40;;;;;;5060425;28;19925;-76
2022/04/17 14:43:43;;;;;;;;;;;23.50;66.80;;;;;;5056413;28;19928;-76
2022/04/17 14:46:10;;;;;;;;;;;23.70;67.20;;;;;;5056309;28;19928;-76